Observation data for Clarendon on 06/17/2019      Previous  Date  Next       Current Mesonet Observations  Soil Data  Daily Summary Page  Observations in Plain Language
KCES 170500Z 11004KT 16/14 A3001 RMK A01 T01620142  RH  092%=      5-min Rain = 0
KCES 170505Z 10003KT 16/14 A3001 RMK A01 T01610141  RH  092%=      5-min Rain = 0
KCES 170510Z 10004KT 16/14 A3001 RMK A01 T01630144  RH  093%=      5-min Rain = 0
KCES 170515Z 10006KT 17/15 A3001 RMK A01 T01670149  RH  093%=      5-min Rain = 0
KCES 170520Z 10005KT 17/15 A30 RMK A01 T01710152  RH  092%=      5-min Rain = 0
KCES 170525Z 10005KT 17/15 A30 RMK A01 T01720151  RH  092%=      5-min Rain = 0
KCES 170530Z 09004KT 17/15 A30 RMK A01 T01710149  RH  091%=      5-min Rain = 0
KCES 170535Z 09002KT 17/15 A30 RMK A01 T01680145  RH  090%=      5-min Rain = 0
KCES 170540Z 28001KT 16/14 A30 RMK A01 T01590136  RH  090%=      5-min Rain = 0
KCES 170545Z 29001KT 16/14 A30 RMK A01 T01560135  RH  091%=      5-min Rain = 0
KCES 170550Z 29000KT 16/14 A30 RMK A01 T01570137  RH  092%=      5-min Rain = 0
KCES 170555Z 30001KT 16/14 A30 RMK A01 T01570138  RH  092%=      5-min Rain = 0
KCES 170600Z 34001KT 16/14 A30 RMK A01 T01570137  RH  092%=      5-min Rain = 0
KCES 170605Z 34000KT 16/14 A2999 RMK A01 T01550136  RH  092%=      5-min Rain = 0
KCES 170610Z 01002KT 15/14 A2999 RMK A01 T01540135  RH  092%=      5-min Rain = 0
KCES 170615Z 02002KT 15/13 A2999 RMK A01 T01520133  RH  092%=      5-min Rain = 0
KCES 170620Z 02002KT 15/14 A2999 RMK A01 T01530135  RH  093%=      5-min Rain = 0
KCES 170625Z 02001KT 15/14 A2999 RMK A01 T01530135  RH  093%=      5-min Rain = 0
KCES 170630Z 01001KT 15/13 A2999 RMK A01 T01520134  RH  093%=      5-min Rain = 0
KCES 170635Z 35001KT 15/13 A2999 RMK A01 T01480129  RH  092%=      5-min Rain = 0
KCES 170640Z 34001KT 15/13 A2999 RMK A01 T01460128  RH  093%=      5-min Rain = 0
KCES 170645Z 34001KT 15/13 A30 RMK A01 T01490133  RH  094%=      5-min Rain = 0
KCES 170650Z 33002KT 15/13 A30 RMK A01 T01500133  RH  094%=      5-min Rain = 0
KCES 170655Z 00002KT 15/13 A30 RMK A01 T01510134  RH  094%=      5-min Rain = 0
KCES 170700Z 02003KT 16/14 A2999 RMK A01 T01550139  RH  094%=      5-min Rain = 0
KCES 170705Z 03003KT 16/14 A2999 RMK A01 T01560140  RH  094%=      5-min Rain = 0
KCES 170710Z 03002KT 16/14 A2999 RMK A01 T01570141  RH  094%=      5-min Rain = 0
KCES 170715Z 05001KT 15/13 A2999 RMK A01 T01500132  RH  093%=      5-min Rain = 0
KCES 170720Z 18001KT 14/12 A2999 RMK A01 T01410124  RH  093%=      5-min Rain = 0
KCES 170725Z 18001KT 14/13 A2999 RMK A01 T01440129  RH  095%=      5-min Rain = 0
KCES 170730Z 17000KT 15/13 A2999 RMK A01 T01480133  RH  095%=      5-min Rain = 0
KCES 170735Z 17001KT 15/13 A2999 RMK A01 T01450129  RH  094%=      5-min Rain = 0
KCES 170740Z 19001KT 14/12 A2999 RMK A01 T01390124  RH  094%=      5-min Rain = 0
KCES 170745Z 19000KT 14/12 A2999 RMK A01 T01380122  RH  094%=      5-min Rain = 0
KCES 170750Z 33001KT 14/12 A2998 RMK A01 T01390124  RH  095%=      5-min Rain = 0
KCES 170755Z 34001KT 14/13 A2999 RMK A01 T01390125  RH  095%=      5-min Rain = 0
KCES 170800Z 26001KT 14/12 A2999 RMK A01 T01370122  RH  094%=      5-min Rain = 0
KCES 170805Z 26001KT 14/12 A2999 RMK A01 T01370123  RH  095%=      5-min Rain = 0
KCES 170810Z 26000KT 14/12 A2998 RMK A01 T01380124  RH  095%=      5-min Rain = 0
KCES 170815Z 26000KT 14/13 A2998 RMK A01 T01430129  RH  095%=      5-min Rain = 0
KCES 170820Z 26000KT 14/13 A2998 RMK A01 T01440130  RH  095%=      5-min Rain = 0
KCES 170825Z 26001KT 14/13 A2998 RMK A01 T01400126  RH  095%=      5-min Rain = 0
KCES 170830Z 27001KT 14/12 A2998 RMK A01 T01370123  RH  095%=      5-min Rain = 0
KCES 170835Z 26001KT 14/12 A2999 RMK A01 T01360122  RH  095%=      5-min Rain = 0
KCES 170840Z 00000KT 15/13 A2999 RMK A01 T01450133  RH  096%=      5-min Rain = 0
KCES 170845Z 00000KT 15/13 A2998 RMK A01 T01470134  RH  096%=      5-min Rain = 0
KCES 170850Z 22001KT 14/12 A2998 RMK A01 T01370122  RH  094%=      5-min Rain = 0
KCES 170855Z 26000KT 13/12 A2998 RMK A01 T01290115  RH  094%=      5-min Rain = 0
KCES 170900Z 26000KT 13/12 A2998 RMK A01 T01290116  RH  095%=      5-min Rain = 0
KCES 170905Z 26001KT 14/12 A2998 RMK A01 T01360124  RH  096%=      5-min Rain = 0
KCES 170910Z 26002KT 13/12 A2998 RMK A01 T01330120  RH  095%=      5-min Rain = 0
KCES 170915Z 26001KT 14/12 A2998 RMK A01 T01350122  RH  096%=      5-min Rain = 0
KCES 170920Z 26001KT 14/13 A2998 RMK A01 T01400128  RH  096%=      5-min Rain = 0
KCES 170925Z 26001KT 14/13 A2998 RMK A01 T01390127  RH  096%=      5-min Rain = 0
KCES 170930Z 26002KT 14/13 A2998 RMK A01 T01380125  RH  095%=      5-min Rain = 0
KCES 170935Z 26002KT 14/13 A2998 RMK A01 T01380125  RH  096%=      5-min Rain = 0
KCES 170940Z 24003KT 14/12 A2998 RMK A01 T01360123  RH  095%=      5-min Rain = 0
KCES 170945Z 24003KT 13/12 A2998 RMK A01 T01340121  RH  095%=      5-min Rain = 0
KCES 170950Z 24002KT 14/12 A2999 RMK A01 T01350122  RH  096%=      5-min Rain = 0
KCES 170955Z 26001KT 14/13 A2999 RMK A01 T01380126  RH  096%=      5-min Rain = 0
KCES 171000Z 28003KT 14/13 A2999 RMK A01 T01390127  RH  096%=      5-min Rain = 0
KCES 171005Z 29002KT 14/13 A2999 RMK A01 T01410129  RH  096%=      5-min Rain = 0
KCES 171010Z 29002KT 14/13 A2999 RMK A01 T01410129  RH  096%=      5-min Rain = 0
KCES 171015Z 32001KT 14/13 A2998 RMK A01 T01410129  RH  096%=      5-min Rain = 0
KCES 171020Z 00001KT 14/13 A2998 RMK A01 T01430131  RH  096%=      5-min Rain = 0
KCES 171025Z 34001KT 14/13 A2999 RMK A01 T01430130  RH  096%=      5-min Rain = 0
KCES 171030Z 34001KT 13/12 A2999 RMK A01 T01340121  RH  095%=      5-min Rain = 0
KCES 171035Z 27002KT 13/12 A2999 RMK A01 T01320119  RH  095%=      5-min Rain = 0
KCES 171040Z 27003KT 14/13 A2999 RMK A01 T01370126  RH  096%=      5-min Rain = 0
KCES 171045Z 26002KT 14/13 A2999 RMK A01 T01410129  RH  096%=      5-min Rain = 0
KCES 171050Z 24002KT 14/13 A2999 RMK A01 T01420131  RH  096%=      5-min Rain = 0
KCES 171055Z 24002KT 13/12 A2999 RMK A01 T01340120  RH  095%=      5-min Rain = 0
KCES 171100Z 25002KT 13/11 A2999 RMK A01 T01270114  RH  095%=      5-min Rain = 0
KCES 171105Z 26001KT 13/12 A2999 RMK A01 T01340123  RH  096%=      5-min Rain = 0
KCES 171110Z 00000KT 13/12 A30 RMK A01 T01320120  RH  096%=      5-min Rain = 0
KCES 171115Z 22001KT 13/12 A30 RMK A01 T01310119  RH  096%=      5-min Rain = 0
KCES 171120Z 25002KT 12/11 A30 RMK A01 T01240111  RH  095%=      5-min Rain = 0
KCES 171125Z 28000KT 12/11 A30 RMK A01 T01240113  RH  096%=      5-min Rain = 0
KCES 171130Z 26000KT 12/11 A3001 RMK A01 T01220110  RH  096%=      5-min Rain = 0
KCES 171135Z 27001KT 12/11 A3001 RMK A01 T01220110  RH  096%=      5-min Rain = 0
KCES 171140Z 32001KT 13/12 A3001 RMK A01 T01290118  RH  097%=      5-min Rain = 0
KCES 171145Z 33001KT 12/11 A3001 RMK A01 T01240112  RH  096%=      5-min Rain = 0
KCES 171150Z 33002KT 12/11 A3001 RMK A01 T01210109  RH  096%=      5-min Rain = 0
KCES 171155Z 31002KT 12/11 A3001 RMK A01 T01230112  RH  096%=      5-min Rain = 0
KCES 171200Z 27002KT 13/12 A3001 RMK A01 T01290118  RH  096%=      5-min Rain = 0
KCES 171205Z 27002KT 13/12 A3001 RMK A01 T01290118  RH  096%=      5-min Rain = 0
KCES 171210Z 26001KT 14/12 A3001 RMK A01 T01350124  RH  097%=      5-min Rain = 0
KCES 171215Z 23002KT 14/13 A3001 RMK A01 T01400129  RH  097%=      5-min Rain = 0
KCES 171220Z 24002KT 14/13 A3001 RMK A01 T01430131  RH  097%=      5-min Rain = 0
KCES 171225Z 23001KT 15/14 A3001 RMK A01 T01460135  RH  097%=      5-min Rain = 0
KCES 171230Z 24001KT 15/14 A3001 RMK A01 T01500138  RH  097%=      5-min Rain = 0
KCES 171235Z 24001KT 16/14 A3001 RMK A01 T01550143  RH  097%=      5-min Rain = 0
KCES 171240Z 24001KT 16/15 A3001 RMK A01 T01590147  RH  097%=      5-min Rain = 0
KCES 171245Z 25001KT 16/15 A3002 RMK A01 T01620149  RH  097%=      5-min Rain = 0
KCES 171250Z 26002KT 17/15 A3002 RMK A01 T01660153  RH  096%=      5-min Rain = 0
KCES 171255Z 26004KT 17/16 A3002 RMK A01 T01720159  RH  096%=      5-min Rain = 0
KCES 171300Z 26004KT 18/16 A3002 RMK A01 T01760163  RH  096%=      5-min Rain = 0
KCES 171305Z 24004KT 18/16 A3003 RMK A01 T01800164  RH  095%=      5-min Rain = 0
KCES 171310Z 24005KT 18/16 A3002 RMK A01 T01820164  RH  094%=      5-min Rain = 0
KCES 171315Z 24005KT 19/17 A3002 RMK A01 T01850165  RH  092%=      5-min Rain = 0
KCES 171320Z 23006KT 19/16 A3002 RMK A01 T01870163  RH  090%=      5-min Rain = 0
KCES 171325Z 23006KT 19/16 A3002 RMK A01 T01880162  RH  089%=      5-min Rain = 0
KCES 171330Z 23007KT 19/16 A3002 RMK A01 T01900163  RH  088%=      5-min Rain = 0
KCES 171335Z 23006KT 19/17 A3003 RMK A01 T01920166  RH  089%=      5-min Rain = 0
KCES 171340Z 22006KT 19/17 A3003 RMK A01 T01940166  RH  088%=      5-min Rain = 0
KCES 171345Z 23005KT 20/17 A3003 RMK A01 T01960165  RH  086%=      5-min Rain = 0
KCES 171350Z 23004KT 20/17 A3003 RMK A01 T01980166  RH  086%=      5-min Rain = 0
KCES 171355Z 23005KT 20/16 A3003 RMK A01 T02000163  RH  083%=      5-min Rain = 0
KCES 171400Z 24005KT 20/16 A3004 RMK A01 T02020162  RH  082%=      5-min Rain = 0
KCES 171405Z 24005KT 20/16 A3004 RMK A01 T02030161  RH  080%=      5-min Rain = 0
KCES 171410Z 23005KT 21/16 A3004 RMK A01 T02050160  RH  079%=      5-min Rain = 0
KCES 171415Z 22005KT 21/16 A3004 RMK A01 T02080157  RH  076%=      5-min Rain = 0
KCES 171420Z 22005KT 21/16 A3004 RMK A01 T02100155  RH  074%=      5-min Rain = 0
KCES 171425Z 22005KT 21/16 A3004 RMK A01 T02130157  RH  074%=      5-min Rain = 0
KCES 171430Z 21005KT 22/16 A3004 RMK A01 T02160156  RH  072%=      5-min Rain = 0
KCES 171435Z 21006KT 22/15 A3004 RMK A01 T02190154  RH  070%=      5-min Rain = 0
KCES 171440Z 22006KT 22/15 A3004 RMK A01 T02200151  RH  068%=      5-min Rain = 0
KCES 171445Z 23006KT 22/15 A3004 RMK A01 T02230145  RH  064%=      5-min Rain = 0
KCES 171450Z 22006KT 22/14 A3004 RMK A01 T02190137  RH  062%=      5-min Rain = 0
KCES 171455Z 22005KT 22/14 A3004 RMK A01 T02180144  RH  066%=      5-min Rain = 0
KCES 171500Z 21005KT 22/14 A3004 RMK A01 T02240144  RH  063%=      5-min Rain = 0
KCES 171505Z 20005KT 23/14 A3004 RMK A01 T02280142  RH  061%=      5-min Rain = 0
KCES 171510Z 20006KT 23/14 A3004 RMK A01 T02290139  RH  059%=      5-min Rain = 0
KCES 171515Z 20005KT 23/13 A3004 RMK A01 T02290132  RH  057%=      5-min Rain = 0
KCES 171520Z 21005KT 23/14 A3004 RMK A01 T02310135  RH  057%=      5-min Rain = 0
KCES 171525Z 20004KT 23/13 A3004 RMK A01 T02340132  RH  055%=      5-min Rain = 0
KCES 171530Z 18005KT 23/14 A3005 RMK A01 T02330135  RH  056%=      5-min Rain = 0
KCES 171535Z 20005KT 23/13 A3005 RMK A01 T02300130  RH  056%=      5-min Rain = 0
KCES 171540Z 20002KT 23/13 A3005 RMK A01 T02310131  RH  055%=      5-min Rain = 0
KCES 171545Z 22003KT 23/12 A3005 RMK A01 T02320124  RH  052%=      5-min Rain = 0
KCES 171550Z 21002KT 23/12 A3005 RMK A01 T02340120  RH  051%=      5-min Rain = 0
KCES 171555Z 18004KT 24/13 A3005 RMK A01 T02360133  RH  055%=      5-min Rain = 0
KCES 171600Z 09001KT 24/12 A3005 RMK A01 T02390124  RH  051%=      5-min Rain = 0
KCES 171605Z 21002KT 24/13 A3006 RMK A01 T02420129  RH  051%=      5-min Rain = 0
KCES 171610Z 19002KT 24/13 A3006 RMK A01 T02430125  RH  049%=      5-min Rain = 0
KCES 171615Z 20001KT 25/13 A3006 RMK A01 T02490129  RH  049%=      5-min Rain = 0
KCES 171620Z 22002KT 25/13 A3006 RMK A01 T02490128  RH  049%=      5-min Rain = 0
KCES 171625Z 20005KT 25/13 A3006 RMK A01 T02470131  RH  051%=      5-min Rain = 0
KCES 171630Z 14004KT 24/13 A3006 RMK A01 T02440128  RH  050%=      5-min Rain = 0
KCES 171635Z 12002KT 25/13 A3005 RMK A01 T02450125  RH  049%=      5-min Rain = 0
KCES 171640Z 04002KT 25/13 A3006 RMK A01 T02480132  RH  050%=      5-min Rain = 0
KCES 171645Z 24002KT 25/13 A3006 RMK A01 T02500134  RH  050%=      5-min Rain = 0
KCES 171650Z 21004KT 25/14 A3006 RMK A01 T02480136  RH  052%=      5-min Rain = 0
KCES 171655Z 23003KT 25/14 A3005 RMK A01 T02490135  RH  051%=      5-min Rain = 0
KCES 171700Z 21005KT 25/14 A3005 RMK A01 T02520142  RH  053%=      5-min Rain = 0
KCES 171705Z 20005G10KT 25/14 A3005 RMK A01 T02520138  RH  051%=      5-min Rain = 0
KCES 171710Z 19004KT 25/13 A3005 RMK A01 T02530133  RH  050%=      5-min Rain = 0
KCES 171715Z 20006KT 25/14 A3005 RMK A01 T02530136  RH  051%=      5-min Rain = 0
KCES 171720Z 17003KT 25/13 A3005 RMK A01 T02530127  RH  047%=      5-min Rain = 0
KCES 171725Z 21001KT 26/13 A3005 RMK A01 T02550125  RH  046%=      5-min Rain = 0
KCES 171730Z 25002KT 26/13 A3005 RMK A01 T02560126  RH  046%=      5-min Rain = 0
KCES 171735Z 24004KT 26/13 A3005 RMK A01 T02560126  RH  046%=      5-min Rain = 0
KCES 171740Z 10003KT 26/13 A3005 RMK A01 T02570126  RH  046%=      5-min Rain = 0
KCES 171745Z 16005G10KT 26/13 A3005 RMK A01 T02600127  RH  045%=      5-min Rain = 0
KCES 171750Z 18005KT 26/12 A3005 RMK A01 T02610122  RH  044%=      5-min Rain = 0
KCES 171755Z 18005KT 26/13 A3005 RMK A01 T02620126  RH  045%=      5-min Rain = 0
KCES 171800Z 18006KT 26/13 A3006 RMK A01 T02620128  RH  045%=      5-min Rain = 0
KCES 171805Z 21004KT 26/12 A3005 RMK A01 T02600124  RH  045%=      5-min Rain = 0
KCES 171810Z 24005KT 26/13 A3005 RMK A01 T02590132  RH  047%=      5-min Rain = 0
KCES 171815Z 20006G11KT 26/13 A3005 RMK A01 T02610131  RH  046%=      5-min Rain = 0
KCES 171820Z 20006KT 26/13 A3005 RMK A01 T02620125  RH  044%=      5-min Rain = 0
KCES 171825Z 20008KT 26/13 A3005 RMK A01 T02630126  RH  044%=      5-min Rain = 0
KCES 171830Z 21004KT 26/12 A3005 RMK A01 T02620120  RH  043%=      5-min Rain = 0
KCES 171835Z 20002KT 26/12 A3005 RMK A01 T02630117  RH  042%=      5-min Rain = 0
KCES 171840Z 15002KT 26/12 A3004 RMK A01 T02640122  RH  043%=      5-min Rain = 0
KCES 171845Z 18004KT 27/13 A3004 RMK A01 T02700132  RH  045%=      5-min Rain = 0
KCES 171850Z 17004G9KT 27/12 A3004 RMK A01 T02700124  RH  042%=      5-min Rain = 0
KCES 171855Z 14002KT 27/12 A3004 RMK A01 T02700124  RH  042%=      5-min Rain = 0
KCES 171900Z 18003KT 27/13 A3004 RMK A01 T02720125  RH  042%=      5-min Rain = 0
KCES 171905Z 21004KT 27/12 A3004 RMK A01 T02730123  RH  041%=      5-min Rain = 0
KCES 171910Z 15006KT 27/12 A3003 RMK A01 T02710122  RH  041%=      5-min Rain = 0
KCES 171915Z 15005KT 27/12 A3003 RMK A01 T02690118  RH  041%=      5-min Rain = 0
KCES 171920Z 17004KT 27/12 A3003 RMK A01 T02710123  RH  042%=      5-min Rain = 0
KCES 171925Z 12004KT 27/12 A3003 RMK A01 T02700117  RH  040%=      5-min Rain = 0
KCES 171930Z 13005KT 27/12 A3003 RMK A01 T02680115  RH  040%=      5-min Rain = 0
KCES 171935Z 12003G8KT 27/11 A3003 RMK A01 T02700107  RH  037%=      5-min Rain = 0
KCES 171940Z 30002G7KT 27/11 A3002 RMK A01 T02710106  RH  037%=      5-min Rain = 0
KCES 171945Z 14005KT 27/11 A3002 RMK A01 T02730112  RH  038%=      5-min Rain = 0
KCES 171950Z 14005KT 28/12 A3002 RMK A01 T02750116  RH  039%=      5-min Rain = 0
KCES 171955Z 20002KT 28/11 A3002 RMK A01 T02760114  RH  038%=      5-min Rain = 0
KCES 172000Z 13003G9KT 28/12 A3002 RMK A01 T02770121  RH  040%=      5-min Rain = 0
KCES 172005Z 11005KT 28/12 A3002 RMK A01 T02780117  RH  038%=      5-min Rain = 0
KCES 172010Z 12003KT 28/12 A3001 RMK A01 T02770117  RH  038%=      5-min Rain = 0
KCES 172015Z 08004KT 28/12 A3001 RMK A01 T02780119  RH  039%=      5-min Rain = 0
KCES 172020Z 10004G9KT 28/11 A3001 RMK A01 T02770113  RH  037%=      5-min Rain = 0
KCES 172025Z 08004KT 28/11 A3001 RMK A01 T02760109  RH  037%=      5-min Rain = 0
KCES 172030Z 11004KT 28/11 A3001 RMK A01 T02790114  RH  037%=      5-min Rain = 0
KCES 172035Z 09003KT 28/11 A30 RMK A01 T02800105  RH  035%=      5-min Rain = 0
KCES 172040Z 14005KT 28/11 A30 RMK A01 T02820110  RH  036%=      5-min Rain = 0
KCES 172045Z 13005KT 28/10 A30 RMK A01 T02810099  RH  033%=      5-min Rain = 0
KCES 172050Z 20002KT 28/10 A30 RMK A01 T02810096  RH  033%=      5-min Rain = 0
KCES 172055Z 11003G9KT 28/10 A30 RMK A01 T02820100  RH  033%=      5-min Rain = 0
KCES 172100Z 10005KT 28/11 A30 RMK A01 T02810111  RH  036%=      5-min Rain = 0
KCES 172105Z 11005G10KT 28/11 A30 RMK A01 T02820105  RH  034%=      5-min Rain = 0
KCES 172110Z 13007KT 28/11 A2999 RMK A01 T02830110  RH  035%=      5-min Rain = 0
KCES 172115Z 12008KT 29/11 A2999 RMK A01 T02850113  RH  036%=      5-min Rain = 0
KCES 172120Z 13005KT 28/12 A2999 RMK A01 T02830116  RH  037%=      5-min Rain = 0
KCES 172125Z 08007KT 28/12 A2998 RMK A01 T02820120  RH  038%=      5-min Rain = 0
KCES 172130Z 06004KT 28/11 A2998 RMK A01 T02810113  RH  036%=      5-min Rain = 0
KCES 172135Z 13007KT 29/12 A2998 RMK A01 T02860122  RH  038%=      5-min Rain = 0
KCES 172140Z 14008KT 29/11 A2998 RMK A01 T02870109  RH  034%=      5-min Rain = 0
KCES 172145Z 14004KT 29/10 A2997 RMK A01 T02860103  RH  033%=      5-min Rain = 0
KCES 172150Z 14005G12KT 29/11 A2997 RMK A01 T02890108  RH  034%=      5-min Rain = 0
KCES 172155Z 15008G13KT 29/10 A2997 RMK A01 T02880103  RH  033%=      5-min Rain = 0
KCES 172200Z 12007G14KT 29/11 A2997 RMK A01 T02880109  RH  034%=      5-min Rain = 0
KCES 172205Z 13008G14KT 29/11 A2997 RMK A01 T02860113  RH  035%=      5-min Rain = 0
KCES 172210Z 14009G14KT 29/11 A2997 RMK A01 T02880112  RH  035%=      5-min Rain = 0
KCES 172215Z 13007KT 29/11 A2996 RMK A01 T02880110  RH  034%=      5-min Rain = 0
KCES 172220Z 14009G14KT 29/11 A2996 RMK A01 T02880105  RH  033%=      5-min Rain = 0
KCES 172225Z 14009G14KT 29/10 A2996 RMK A01 T02860102  RH  033%=      5-min Rain = 0
KCES 172230Z 15009KT 29/11 A2996 RMK A01 T02880108  RH  034%=      5-min Rain = 0
KCES 172235Z 16008KT 29/10 A2996 RMK A01 T02880096  RH  031%=      5-min Rain = 0
KCES 172240Z 16009KT 29/10 A2996 RMK A01 T02850097  RH  032%=      5-min Rain = 0
KCES 172245Z 15007KT 28/10 A2996 RMK A01 T02840096  RH  032%=      5-min Rain = 0
KCES 172250Z 12007KT 28/10 A2996 RMK A01 T02800097  RH  033%=      5-min Rain = 0
KCES 172255Z 13011KT 28/10 A2995 RMK A01 T02770100  RH  034%=      5-min Rain = 0
KCES 172300Z 12009KT 27/10 A2995 RMK A01 T02740103  RH  036%=      5-min Rain = 0
KCES 172305Z 12010KT 27/11 A2995 RMK A01 T02730107  RH  037%=      5-min Rain = 0
KCES 172310Z 12009KT 27/12 A2995 RMK A01 T02720115  RH  039%=      5-min Rain = 0
KCES 172315Z 12009KT 27/12 A2995 RMK A01 T02710115  RH  039%=      5-min Rain = 0
KCES 172320Z 12009KT 27/12 A2995 RMK A01 T02710117  RH  040%=      5-min Rain = 0
KCES 172325Z 13009KT 27/12 A2995 RMK A01 T02700117  RH  040%=      5-min Rain = 0
KCES 172330Z 13009KT 27/12 A2995 RMK A01 T02700118  RH  040%=      5-min Rain = 0
KCES 172335Z 12009KT 27/12 A2995 RMK A01 T02700121  RH  041%=      5-min Rain = 0
KCES 172340Z 12009KT 27/12 A2995 RMK A01 T02700123  RH  042%=      5-min Rain = 0
KCES 172345Z 12009KT 27/13 A2995 RMK A01 T02690127  RH  043%=      5-min Rain = 0
KCES 172350Z 11007KT 27/13 A2995 RMK A01 T02690130  RH  044%=      5-min Rain = 0
KCES 172355Z 12008KT 27/13 A2995 RMK A01 T02680125  RH  043%=      5-min Rain = 0
KCES 180000Z 12009KT 27/12 A2995 RMK A01 T02690118  RH  041%=      5-min Rain = 0
KCES 180005Z 13008KT 27/12 A2995 RMK A01 T02690123  RH  042%=      5-min Rain = 0
KCES 180010Z 12009KT 27/12 A2994 RMK A01 T02680124  RH  042%=      5-min Rain = 0
KCES 180015Z 11008KT 27/13 A2994 RMK A01 T02670129  RH  044%=      5-min Rain = 0
KCES 180020Z 11009KT 26/13 A2994 RMK A01 T02640129  RH  045%=      5-min Rain = 0
KCES 180025Z 12009KT 26/13 A2994 RMK A01 T02630131  RH  046%=      5-min Rain = 0
KCES 180030Z 13007KT 26/13 A2994 RMK A01 T02610134  RH  047%=      5-min Rain = 0
KCES 180035Z 13008KT 26/13 A2995 RMK A01 T02590132  RH  047%=      5-min Rain = 0
KCES 180040Z 13010KT 26/13 A2994 RMK A01 T02580132  RH  048%=      5-min Rain = 0
KCES 180045Z 12009G14KT 26/13 A2994 RMK A01 T02570132  RH  048%=      5-min Rain = 0
KCES 180050Z 12008KT 26/13 A2993 RMK A01 T02560133  RH  049%=      5-min Rain = 0
KCES 180055Z 12007KT 26/14 A2993 RMK A01 T02550135  RH  050%=      5-min Rain = 0
KCES 180100Z 11006KT 25/14 A2994 RMK A01 T02530139  RH  051%=      5-min Rain = 0
KCES 180105Z 11006KT 25/14 A2994 RMK A01 T02510141  RH  053%=      5-min Rain = 0
KCES 180110Z 11006KT 25/14 A2994 RMK A01 T02480141  RH  054%=      5-min Rain = 0
KCES 180115Z 12005KT 25/14 A2994 RMK A01 T02460143  RH  055%=      5-min Rain = 0
KCES 180120Z 12006KT 24/15 A2994 RMK A01 T02430145  RH  057%=      5-min Rain = 0
KCES 180125Z 13006KT 24/15 A2994 RMK A01 T02390147  RH  059%=      5-min Rain = 0
KCES 180130Z 13005KT 24/15 A2994 RMK A01 T02350149  RH  061%=      5-min Rain = 0
KCES 180135Z 12006KT 23/15 A2994 RMK A01 T02310151  RH  063%=      5-min Rain = 0
KCES 180140Z 11006KT 23/15 A2994 RMK A01 T02300151  RH  064%=      5-min Rain = 0
KCES 180145Z 11006KT 23/15 A2994 RMK A01 T02300148  RH  063%=      5-min Rain = 0
KCES 180150Z 13007KT 23/15 A2994 RMK A01 T02300148  RH  062%=      5-min Rain = 0
KCES 180155Z 12007KT 23/15 A2994 RMK A01 T02280147  RH  063%=      5-min Rain = 0
KCES 180200Z 11007KT 23/15 A2994 RMK A01 T02270148  RH  064%=      5-min Rain = 0
KCES 180205Z 12007KT 23/15 A2994 RMK A01 T02280148  RH  063%=      5-min Rain = 0
KCES 180210Z 13007KT 23/15 A2994 RMK A01 T02260149  RH  064%=      5-min Rain = 0
KCES 180215Z 13007KT 22/15 A2994 RMK A01 T02230150  RH  066%=      5-min Rain = 0
KCES 180220Z 14007KT 22/15 A2995 RMK A01 T02210150  RH  067%=      5-min Rain = 0
KCES 180225Z 15006KT 22/15 A2996 RMK A01 T02200150  RH  068%=      5-min Rain = 0
KCES 180230Z 14007KT 22/15 A2996 RMK A01 T02200150  RH  068%=      5-min Rain = 0
KCES 180235Z 15007KT 22/15 A2997 RMK A01 T02200149  RH  067%=      5-min Rain = 0
KCES 180240Z 15007KT 22/15 A2997 RMK A01 T02200149  RH  067%=      5-min Rain = 0
KCES 180245Z 14007KT 22/15 A2997 RMK A01 T02190147  RH  067%=      5-min Rain = 0
KCES 180250Z 15007KT 22/15 A2997 RMK A01 T02190147  RH  066%=      5-min Rain = 0
KCES 180255Z 15007KT 22/15 A2997 RMK A01 T02180147  RH  067%=      5-min Rain = 0
KCES 180300Z 14007KT 22/15 A2997 RMK A01 T02180145  RH  066%=      5-min Rain = 0
KCES 180305Z 14007KT 22/14 A2998 RMK A01 T02190144  RH  065%=      5-min Rain = 0
KCES 180310Z 15006KT 22/14 A2998 RMK A01 T02190144  RH  065%=      5-min Rain = 0
KCES 180315Z 15006KT 22/14 A2999 RMK A01 T02190144  RH  065%=      5-min Rain = 0
KCES 180320Z 14006KT 22/15 A2999 RMK A01 T02190145  RH  066%=      5-min Rain = 0
KCES 180325Z 14005KT 22/15 A30 RMK A01 T02190146  RH  066%=      5-min Rain = 0
KCES 180330Z 15004KT 22/15 A3001 RMK A01 T02170147  RH  067%=      5-min Rain = 0
KCES 180335Z 18002KT 22/15 A3002 RMK A01 T02150147  RH  068%=      5-min Rain = 0
KCES 180340Z 18002KT 21/15 A3003 RMK A01 T02130151  RH  071%=      5-min Rain = 0
KCES 180345Z 19003KT 21/15 A3004 RMK A01 T02120153  RH  072%=      5-min Rain = 0
KCES 180350Z 19003KT 21/16 A3004 RMK A01 T02120156  RH  074%=      5-min Rain = 0
KCES 180355Z 20004KT 21/16 A3004 RMK A01 T02120157  RH  074%=      5-min Rain = 0
KCES 180400Z 17003KT 21/15 A3004 RMK A01 T02130154  RH  072%=      5-min Rain = 0
KCES 180405Z 19002KT 22/16 A3004 RMK A01 T02150157  RH  073%=      5-min Rain = 0
KCES 180410Z 25003KT 21/16 A3005 RMK A01 T02130160  RH  075%=      5-min Rain = 0
KCES 180415Z 22004KT 21/16 A3005 RMK A01 T02110158  RH  075%=      5-min Rain = 0
KCES 180420Z 21004KT 21/16 A3005 RMK A01 T02110157  RH  075%=      5-min Rain = 0
KCES 180425Z 24007G19KT 21/16 A3006 RMK A01 T02100158  RH  075%=      5-min Rain = 0
KCES 180430Z 27013G18KT 21/15 A3008 RMK A01 T02140149  RH  069%=      5-min Rain = 0
KCES 180435Z 27014KT 22/14 A3008 RMK A01 T02240138  RH  061%=      5-min Rain = 0
KCES 180440Z 28014KT 23/13 A3009 RMK A01 T02250134  RH  059%=      5-min Rain = 0
KCES 180445Z 29012G17KT 22/13 A3008 RMK A01 T02220132  RH  059%=      5-min Rain = 0
KCES 180450Z 30014G20KT 22/13 A3008 RMK A01 T02190131  RH  060%=      5-min Rain = 0
KCES 180455Z 30012KT 22/13 A3008 RMK A01 T02170132  RH  061%=      5-min Rain = 0

Page generated in 0.0094 seconds.